Time;durP1;ratioP1;P1;durP2;ratioP2;P2;SDS_P1;SDS_P2;PMS_P1;PMS_P2;Temp;Humidity;BMP_temperature;BMP_pressure;BME280_temperature;BME280_humidity;BME280_pressure;Samples;Min_cycle;Max_cycle;Signal;HPM_P1;HPM_P2
2022/05/25 00:00:56;;;;;;;59.57;3.57;;;;;;;;;;5053543;28;20571;-76
2022/05/25 00:03:23;;;;;;;58.73;2.70;;;;;;;;;;5053494;28;20540;-76
2022/05/25 00:05:50;;;;;;;58.77;2.60;;;;;;;;;;5053538;28;20541;-76
2022/05/25 00:08:18;;;;;;;58.77;2.87;;;;;;;;;;5052729;28;20957;-76
2022/05/25 00:10:45;;;;;;;58.80;2.70;;;;;;;;;;5053593;28;20885;-76
2022/05/25 00:13:13;;;;;;;58.87;2.80;;;;;;;;;;5053391;28;20456;-76
2022/05/25 00:15:40;;;;;;;58.57;2.50;;;;;;;;;;5053459;28;20440;-76
2022/05/25 00:18:08;;;;;;;58.63;2.70;;;;;;;;;;5052552;28;20460;-76
2022/05/25 00:20:35;;;;;;;58.53;2.60;;;;;;;;;;5053030;28;20556;-75
2022/05/25 00:23:03;;;;;;;59.07;2.70;;;;;;;;;;5053290;28;20449;-76
2022/05/25 00:25:33;;;;;;;58.67;2.70;;;;;;;;;;5053227;28;20528;-76
2022/05/25 00:28:00;;;;;;;59.40;3.50;;;;;;;;;;5052546;28;20467;-76
2022/05/25 00:30:29;;;;;;;58.57;2.70;;;;;;;;;;5052937;28;20487;-77
2022/05/25 00:32:56;;;;;;;58.73;2.70;;;;;;;;;;5052495;28;20455;-76
2022/05/25 00:35:24;;;;;;;58.73;2.53;;;;;;;;;;5053325;28;20815;-77
2022/05/25 00:37:52;;;;;;;58.87;2.70;;;;;;;;;;5052565;28;20539;-76
2022/05/25 00:40:20;;;;;;;58.60;2.50;;;;;;;;;;5052828;28;20456;-76
2022/05/25 00:42:47;;;;;;;58.47;2.50;;;;;;;;;;5052789;28;20959;-76
2022/05/25 00:45:15;;;;;;;58.80;2.53;;;;;;;;;;5052783;28;20453;-76
2022/05/25 00:47:46;;;;;;;58.57;2.67;;;;;;;;;;5052068;28;20552;-76
2022/05/25 00:50:14;;;;;;;58.67;2.57;;;;;;;;;;5052795;28;20544;-76
2022/05/25 00:52:43;;;;;;;58.57;2.43;;;;;;;;;;5052772;28;20875;-76
2022/05/25 00:55:13;;;;;;;58.80;2.60;;;;;;;;;;5057121;28;20528;-76
2022/05/25 00:57:42;;;;;;;58.90;2.33;;;;;;;;;;5051821;28;20456;-76
2022/05/25 01:00:11;;;;;;;58.53;2.80;;;;;;;;;;5052753;28;20520;-76
2022/05/25 01:02:39;;;;;;;58.53;2.67;;;;;;;;;;5052805;28;20524;-76
2022/05/25 01:05:09;;;;;;;58.73;2.70;;;;;;;;;;5052647;28;20536;-76
2022/05/25 01:07:46;;;;;;;58.60;2.70;;;;;;;;;;5051808;28;20482;-76
2022/05/25 01:10:21;;;;;;;58.83;2.60;;;;;;;;;;5052175;28;20574;-76
2022/05/25 01:12:56;;;;;;;58.80;2.80;;;;;;;;;;5052573;28;20501;-76
2022/05/25 01:15:27;;;;;;;58.63;3.00;;;;;;;;;;5052491;28;20541;-76
2022/05/25 01:18:02;;;;;;;58.57;2.90;;;;;;;;;;5052002;28;20539;-76
2022/05/25 01:20:35;;;;;;;58.87;2.80;;;;;;;;;;5052469;28;20445;-76
2022/05/25 01:23:19;;;;;;;58.77;2.77;;;;;;;;;;5052530;28;20530;-76
2022/05/25 01:26:17;;;;;;;58.57;2.73;;;;;;;;;;5012429;28;20451;-76
2022/05/25 01:28:53;;;;;;;58.33;2.63;;;;;;;;;;4970473;28;20503;-76
2022/05/25 01:31:23;;;;;;;58.87;2.90;;;;;;;;;;5038174;28;20468;-76
2022/05/25 01:33:54;;;;;;;58.77;3.10;;;;;;;;;;5052264;28;20535;-76
2022/05/25 01:36:24;;;;;;;58.77;2.90;;;;;;;;;;5051944;28;20969;-76
2022/05/25 01:38:53;;;;;;;58.80;2.70;;;;;;;;;;5051288;28;20456;-75
2022/05/25 01:41:22;;;;;;;58.77;2.60;;;;;;;;;;5051589;28;20912;-76
2022/05/25 01:43:51;;;;;;;58.90;3.30;;;;;;;;;;5051960;28;20888;-76
2022/05/25 01:46:21;;;;;;;58.77;2.77;;;;;;;;;;5051773;28;20530;-76
2022/05/25 01:48:51;;;;;;;58.77;2.73;;;;;;;;;;5051209;28;20472;-76
2022/05/25 01:51:20;;;;;;;58.67;2.80;;;;;;;;;;5050896;28;20496;-76
2022/05/25 01:53:50;;;;;;;58.63;2.80;;;;;;;;;;5051557;28;20848;-76
2022/05/25 01:56:19;;;;;;;58.80;2.70;;;;;;;;;;5051847;28;20536;-76
2022/05/25 01:58:48;;;;;;;58.60;2.90;;;;;;;;;;5047546;28;20449;-76
2022/05/25 02:01:16;;;;;;;58.77;2.70;;;;;;;;;;5051219;28;21014;-76
2022/05/25 02:06:45;;;;;;;59.27;3.40;;;;;;;;;;5051624;28;20444;-77
2022/05/25 02:09:21;;;;;;;59.00;2.90;;;;;;;;;;5050904;28;20481;-77
2022/05/25 02:11:52;;;;;;;58.67;2.80;;;;;;;;;;5058235;22;20519;-76
2022/05/25 02:36:34;;;;;;;;;;;;;;;;;;;;;
2022/05/25 03:11:57;;;;;;;58.87;2.90;;;;;;;;;;5055178;28;20486;-77
2022/05/25 03:45:23;;;;;;;58.77;2.60;;;;;;;;;;5023791;26;20872;-77
2022/05/25 04:38:55;;;;;;;58.47;2.60;;;;;;;;;;5118343;27;20542;-83
2022/05/25 04:41:22;;;;;;;58.80;2.63;;;;;;;;;;5069067;28;20885;-83
2022/05/25 04:43:49;;;;;;;58.47;2.60;;;;;;;;;;5069179;28;20920;-83
2022/05/25 04:46:17;;;;;;;58.63;2.80;;;;;;;;;;5068882;28;20444;-84
2022/05/25 04:48:44;;;;;;;58.77;2.90;;;;;;;;;;5070905;28;20443;-83
2022/05/25 04:51:12;;;;;;;58.60;2.60;;;;;;;;;;5068974;28;20497;-84
2022/05/25 04:53:40;;;;;;;59.00;2.90;;;;;;;;;;5068654;28;20440;-84
2022/05/25 04:58:54;;;;;;;58.47;2.77;;;;;;;;;;5068501;28;20450;-84
2022/05/25 05:01:22;;;;;;;58.47;2.70;;;;;;;;;;5068723;28;20468;-84
2022/05/25 05:03:50;;;;;;;58.70;3.00;;;;;;;;;;5069818;28;20451;-84
2022/05/25 05:06:18;;;;;;;58.63;2.70;;;;;;;;;;5068898;28;20476;-84
2022/05/25 05:08:45;;;;;;;58.57;2.73;;;;;;;;;;5068395;28;20936;-84
2022/05/25 05:11:14;;;;;;;58.47;2.43;;;;;;;;;;5068544;28;20444;-85
2022/05/25 05:13:42;;;;;;;58.23;2.47;;;;;;;;;;5068609;28;20448;-84
2022/05/25 05:16:11;;;;;;;58.67;2.50;;;;;;;;;;5068483;28;20433;-84
2022/05/25 05:18:38;;;;;;;58.57;2.60;;;;;;;;;;5068594;28;20885;-84
2022/05/25 05:21:07;;;;;;;58.57;2.40;;;;;;;;;;5068872;28;20483;-84
2022/05/25 05:23:35;;;;;;;58.60;2.60;;;;;;;;;;5070439;28;20442;-84
2022/05/25 05:26:05;;;;;;;58.47;2.53;;;;;;;;;;5073898;28;20437;-84
2022/05/25 05:28:37;;;;;;;58.63;2.40;;;;;;;;;;5071962;28;20488;-84
2022/05/25 05:31:04;;;;;;;58.57;2.50;;;;;;;;;;5073770;28;20440;-84
2022/05/25 05:33:32;;;;;;;58.93;2.90;;;;;;;;;;5073731;28;20439;-84
2022/05/25 05:36:01;;;;;;;58.37;2.47;;;;;;;;;;5083491;28;20460;-84
2022/05/25 05:38:29;;;;;;;58.43;2.53;;;;;;;;;;5072793;28;20453;-84
2022/05/25 05:40:57;;;;;;;58.67;2.90;;;;;;;;;;5064822;28;20429;-84
2022/05/25 05:43:24;;;;;;;58.73;2.70;;;;;;;;;;5067521;28;20442;-84
2022/05/25 05:45:55;;;;;;;58.73;2.70;;;;;;;;;;5058907;28;20476;-84
2022/05/25 05:48:23;;;;;;;58.50;2.60;;;;;;;;;;5054844;28;20474;-84
2022/05/25 05:50:54;;;;;;;58.63;2.50;;;;;;;;;;5054701;28;20461;-85
2022/05/25 05:53:22;;;;;;;58.77;2.80;;;;;;;;;;5055015;28;20899;-84
2022/05/25 05:55:49;;;;;;;58.73;2.70;;;;;;;;;;5054874;28;20440;-86
2022/05/25 05:58:17;;;;;;;58.77;3.10;;;;;;;;;;5054435;28;20441;-85
2022/05/25 06:00:44;;;;;;;58.57;2.70;;;;;;;;;;5054386;28;20465;-85
2022/05/25 06:03:13;;;;;;;58.87;2.60;;;;;;;;;;5054414;28;20491;-85
2022/05/25 06:05:41;;;;;;;58.77;2.70;;;;;;;;;;5054379;28;20452;-85
2022/05/25 06:08:09;;;;;;;58.60;2.70;;;;;;;;;;5054245;28;20478;-86
2022/05/25 06:10:37;;;;;;;58.63;2.43;;;;;;;;;;5054420;28;20466;-85
2022/05/25 06:13:04;;;;;;;58.67;2.40;;;;;;;;;;5054313;28;20446;-84
2022/05/25 06:21:02;;;;;;;58.43;2.53;;;;;;;;;;5054133;28;20417;-86
2022/05/25 06:23:30;;;;;;;58.47;2.53;;;;;;;;;;5054125;28;20857;-85
2022/05/25 06:25:57;;;;;;;58.27;2.50;;;;;;;;;;5054252;28;20559;-84
2022/05/25 06:28:24;;;;;;;58.37;2.50;;;;;;;;;;5054026;28;20477;-84
2022/05/25 06:30:53;;;;;;;58.47;2.70;;;;;;;;;;5054504;28;20878;-84
2022/05/25 06:33:22;;;;;;;58.60;2.70;;;;;;;;;;5055564;28;20466;-86
2022/05/25 06:35:49;;;;;;;58.43;2.50;;;;;;;;;;5054965;28;20457;-85
2022/05/25 06:38:17;;;;;;;58.53;2.80;;;;;;;;;;5054545;28;20510;-85
2022/05/25 06:40:44;;;;;;;58.47;2.70;;;;;;;;;;5053732;28;20462;-84
2022/05/25 06:43:12;;;;;;;58.50;2.60;;;;;;;;;;5053722;28;20960;-86
2022/05/25 06:45:39;;;;;;;61.77;3.30;;;;;;;;;;5053508;28;20446;-86
2022/05/25 06:48:07;;;;;;;58.67;2.60;;;;;;;;;;5053372;28;20507;-85
2022/05/25 06:50:36;;;;;;;58.67;2.90;;;;;;;;;;5052245;28;20549;-85
2022/05/25 06:53:04;;;;;;;58.57;2.80;;;;;;;;;;5053511;28;20811;-85
2022/05/25 06:55:31;;;;;;;58.37;2.70;;;;;;;;;;5053622;28;20994;-85
2022/05/25 06:57:58;;;;;;;58.50;2.80;;;;;;;;;;5052832;28;20462;-85
2022/05/25 07:00:25;;;;;;;58.43;2.20;;;;;;;;;;5053200;28;20525;-84
2022/05/25 07:02:53;;;;;;;58.57;2.70;;;;;;;;;;5053303;28;20448;-84
2022/05/25 07:05:21;;;;;;;58.17;2.60;;;;;;;;;;5053527;28;20452;-85
2022/05/25 07:07:49;;;;;;;58.70;2.50;;;;;;;;;;5051801;28;20490;-84
2022/05/25 07:10:17;;;;;;;58.70;2.67;;;;;;;;;;5052612;28;20464;-84
2022/05/25 07:12:44;;;;;;;58.57;2.60;;;;;;;;;;5052965;28;20967;-84
2022/05/25 07:15:12;;;;;;;58.20;2.50;;;;;;;;;;5052910;28;20863;-85
2022/05/25 07:17:39;;;;;;;58.47;2.67;;;;;;;;;;5053154;28;20863;-85
2022/05/25 07:20:09;;;;;;;58.33;2.47;;;;;;;;;;5053068;28;20471;-85
2022/05/25 07:22:36;;;;;;;58.47;2.50;;;;;;;;;;5052989;28;20818;-85
2022/05/25 07:25:05;;;;;;;58.57;2.47;;;;;;;;;;5052958;28;20432;-84
2022/05/25 07:27:32;;;;;;;58.50;2.50;;;;;;;;;;5052528;28;20487;-85
2022/05/25 07:30:00;;;;;;;58.67;2.63;;;;;;;;;;5052637;28;20482;-85
2022/05/25 07:32:27;;;;;;;58.17;2.50;;;;;;;;;;5053396;28;20447;-83
2022/05/25 07:34:57;;;;;;;58.47;2.57;;;;;;;;;;5052624;28;20448;-85
2022/05/25 07:37:25;;;;;;;58.27;2.30;;;;;;;;;;5052416;28;20874;-84
2022/05/25 07:39:54;;;;;;;58.47;2.60;;;;;;;;;;5052780;28;21032;-84
2022/05/25 07:42:23;;;;;;;58.33;2.50;;;;;;;;;;5052550;28;20439;-84
2022/05/25 07:44:53;;;;;;;58.47;2.60;;;;;;;;;;5052132;28;20440;-84
2022/05/25 07:47:20;;;;;;;62.27;3.13;;;;;;;;;;5051892;28;20474;-84
2022/05/25 07:49:48;;;;;;;58.27;2.40;;;;;;;;;;5052038;28;20459;-84
2022/05/25 07:52:15;;;;;;;58.57;2.60;;;;;;;;;;5052836;28;20441;-85
2022/05/25 07:54:43;;;;;;;58.37;2.60;;;;;;;;;;5051850;28;20452;-84
2022/05/25 07:57:10;;;;;;;58.37;2.40;;;;;;;;;;5051945;28;20454;-85
2022/05/25 07:59:39;;;;;;;58.00;2.50;;;;;;;;;;5052122;28;20483;-84
2022/05/25 08:07:43;;;;;;;58.60;2.70;;;;;;;;;;5052105;28;20632;-85
2022/05/25 08:10:12;;;;;;;58.53;2.50;;;;;;;;;;5052161;28;20455;-86
2022/05/25 08:12:40;;;;;;;58.47;2.70;;;;;;;;;;5052323;28;20443;-87
2022/05/25 08:15:10;;;;;;;58.37;2.40;;;;;;;;;;5051918;28;20443;-85
2022/05/25 08:17:38;;;;;;;58.20;2.60;;;;;;;;;;5052024;28;20442;-86
2022/05/25 08:20:06;;;;;;;58.30;2.60;;;;;;;;;;5051848;28;20460;-85
2022/05/25 08:22:34;;;;;;;58.60;3.00;;;;;;;;;;5051860;28;20444;-85
2022/05/25 08:25:01;;;;;;;59.20;3.23;;;;;;;;;;5052349;28;20531;-84
2022/05/25 08:27:28;;;;;;;58.33;2.60;;;;;;;;;;5051940;28;20475;-84
2022/05/25 08:29:56;;;;;;;58.80;2.67;;;;;;;;;;5051774;28;20462;-85
2022/05/25 08:32:24;;;;;;;58.70;2.53;;;;;;;;;;5051749;28;20483;-83
2022/05/25 08:34:52;;;;;;;58.33;2.30;;;;;;;;;;5051764;28;20964;-84
2022/05/25 08:37:20;;;;;;;58.30;2.50;;;;;;;;;;5051360;28;20498;-84
2022/05/25 08:39:47;;;;;;;58.70;2.63;;;;;;;;;;5051702;28;20470;-85
2022/05/25 08:42:16;;;;;;;58.33;2.70;;;;;;;;;;5051720;28;20445;-85
2022/05/25 08:44:44;;;;;;;59.10;3.20;;;;;;;;;;5051914;28;20436;-84
2022/05/25 08:47:13;;;;;;;58.60;2.50;;;;;;;;;;5051628;28;20456;-84
2022/05/25 08:49:43;;;;;;;58.63;2.77;;;;;;;;;;5051430;28;20488;-84
2022/05/25 08:52:20;;;;;;;58.43;2.40;;;;;;;;;;5051857;28;20478;-84
2022/05/25 08:54:47;;;;;;;57.60;2.47;;;;;;;;;;5051346;28;21019;-85
2022/05/25 08:57:16;;;;;;;58.27;2.50;;;;;;;;;;5051508;28;20453;-86
2022/05/25 08:59:47;;;;;;;58.30;2.40;;;;;;;;;;5051739;28;20834;-83
2022/05/25 09:02:18;;;;;;;58.30;2.50;;;;;;;;;;5051584;28;20925;-83
2022/05/25 09:04:50;;;;;;;58.27;2.60;;;;;;;;;;5051640;28;20527;-84
2022/05/25 09:07:20;;;;;;;58.43;2.50;;;;;;;;;;5051486;28;20453;-85
2022/05/25 09:09:48;;;;;;;58.30;2.20;;;;;;;;;;5051370;28;20487;-85
2022/05/25 09:12:20;;;;;;;58.27;2.50;;;;;;;;;;5052419;28;20500;-85
2022/05/25 09:14:49;;;;;;;58.23;2.40;;;;;;;;;;5054529;28;20452;-85
2022/05/25 09:17:20;;;;;;;57.97;2.30;;;;;;;;;;5055881;28;20496;-83
2022/05/25 09:19:49;;;;;;;58.20;2.10;;;;;;;;;;5055971;28;21133;-85
2022/05/25 09:22:20;;;;;;;58.20;2.30;;;;;;;;;;5055021;28;20445;-85
2022/05/25 09:24:48;;;;;;;58.07;2.30;;;;;;;;;;5055235;28;20727;-85
2022/05/25 09:27:17;;;;;;;57.93;2.10;;;;;;;;;;5054858;28;21018;-85
2022/05/25 09:29:44;;;;;;;57.77;2.20;;;;;;;;;;5054855;28;20490;-83
2022/05/25 09:32:19;;;;;;;58.57;2.60;;;;;;;;;;5055457;28;20503;-85
2022/05/25 09:34:51;;;;;;;63.50;3.07;;;;;;;;;;5054898;28;20538;-84
2022/05/25 09:37:31;;;;;;;58.47;2.30;;;;;;;;;;5054778;28;20894;-86
2022/05/25 09:40:02;;;;;;;58.27;2.10;;;;;;;;;;5054483;28;20536;-85
2022/05/25 09:42:34;;;;;;;57.47;2.20;;;;;;;;;;5054564;28;20412;-86
2022/05/25 09:45:01;;;;;;;58.07;2.27;;;;;;;;;;5054667;28;20421;-84
2022/05/25 09:47:33;;;;;;;58.77;2.57;;;;;;;;;;5054454;28;20438;-86
2022/05/25 09:50:02;;;;;;;57.87;2.20;;;;;;;;;;5054442;28;20549;-85
2022/05/25 09:52:35;;;;;;;59.17;2.70;;;;;;;;;;5054836;28;20808;-83
2022/05/25 09:55:03;;;;;;;57.40;2.10;;;;;;;;;;5054405;28;20451;-83
2022/05/25 09:57:33;;;;;;;58.57;2.60;;;;;;;;;;5054450;28;20517;-83
2022/05/25 10:00:03;;;;;;;58.30;2.20;;;;;;;;;;5054208;28;21003;-83
2022/05/25 10:02:33;;;;;;;58.43;2.30;;;;;;;;;;5054554;28;20428;-84
2022/05/25 10:05:11;;;;;;;62.80;3.23;;;;;;;;;;5054111;28;20441;-84
2022/05/25 10:07:42;;;;;;;58.27;2.37;;;;;;;;;;5054327;28;20436;-81
2022/05/25 10:10:11;;;;;;;58.13;2.40;;;;;;;;;;5054156;28;20544;-84
2022/05/25 10:12:42;;;;;;;58.50;2.43;;;;;;;;;;5054266;28;20444;-83
2022/05/25 10:15:11;;;;;;;58.23;2.00;;;;;;;;;;5054111;28;20444;-84
2022/05/25 10:17:40;;;;;;;58.20;2.10;;;;;;;;;;5054267;28;20456;-84
2022/05/25 10:20:22;;;;;;;59.53;2.50;;;;;;;;;;5054106;28;20476;-86
2022/05/25 10:22:52;;;;;;;58.20;2.07;;;;;;;;;;5054057;28;20441;-85
2022/05/25 10:25:26;;;;;;;57.80;1.90;;;;;;;;;;5054393;28;20426;-86
2022/05/25 10:27:54;;;;;;;58.50;2.07;;;;;;;;;;5053706;28;20974;-85
2022/05/25 10:38:47;;;;;;;58.30;2.40;;;;;;;;;;5062181;28;20475;-85
2022/05/25 10:44:04;;;;;;;60.07;2.13;;;;;;;;;;5055714;28;20411;-84
2022/05/25 10:46:32;;;;;;;57.70;2.10;;;;;;;;;;5058180;28;20480;-86
2022/05/25 10:49:02;;;;;;;58.30;2.10;;;;;;;;;;5054405;28;20484;-86
2022/05/25 10:51:32;;;;;;;58.30;2.10;;;;;;;;;;5054230;28;20440;-86
2022/05/25 10:56:53;;;;;;;58.10;2.00;;;;;;;;;;5053221;28;20461;-85
2022/05/25 10:59:27;;;;;;;58.07;1.97;;;;;;;;;;5053014;28;21160;-83
2022/05/25 11:02:10;;;;;;;58.07;1.90;;;;;;;;;;5053746;28;20447;-86
2022/05/25 11:04:40;;;;;;;58.10;1.93;;;;;;;;;;5054039;28;20899;-86
2022/05/25 11:07:23;;;;;;;58.07;1.93;;;;;;;;;;5062467;28;20540;-86
2022/05/25 11:10:08;;;;;;;58.90;2.70;;;;;;;;;;5056609;28;20493;-86
2022/05/25 11:12:41;;;;;;;58.67;2.30;;;;;;;;;;5050476;28;20449;-84
2022/05/25 11:15:13;;;;;;;58.07;1.90;;;;;;;;;;5053391;28;20856;-84
2022/05/25 11:17:57;;;;;;;58.40;2.33;;;;;;;;;;5053088;28;20517;-84
2022/05/25 11:20:30;;;;;;;58.57;2.57;;;;;;;;;;5053423;28;21139;-85
2022/05/25 11:23:10;;;;;;;58.07;2.10;;;;;;;;;;5053211;28;20413;-86
2022/05/25 11:25:42;;;;;;;58.10;2.10;;;;;;;;;;5053396;28;20416;-87
2022/05/25 11:28:23;;;;;;;57.67;1.77;;;;;;;;;;5053040;28;20420;-88
2022/05/25 11:30:59;;;;;;;57.53;1.87;;;;;;;;;;5053392;28;20460;-86
2022/05/25 11:33:38;;;;;;;57.60;2.00;;;;;;;;;;5053073;28;20440;-86
2022/05/25 11:36:11;;;;;;;57.43;2.03;;;;;;;;;;5052145;28;20452;-85
2022/05/25 11:38:51;;;;;;;57.50;1.80;;;;;;;;;;5052619;28;20456;-84
2022/05/25 11:41:24;;;;;;;57.50;1.90;;;;;;;;;;5052601;28;20850;-85
2022/05/25 11:44:00;;;;;;;57.80;2.13;;;;;;;;;;5052502;28;20789;-85
2022/05/25 11:46:33;;;;;;;58.10;2.20;;;;;;;;;;5052902;28;20831;-85
2022/05/25 11:49:28;;;;;;;57.93;2.30;;;;;;;;;;5052692;28;20912;-83
2022/05/25 11:52:02;;;;;;;57.73;1.70;;;;;;;;;;5028226;28;20456;-85
2022/05/25 11:54:38;;;;;;;58.33;1.80;;;;;;;;;;5052445;28;20425;-85
2022/05/25 11:57:08;;;;;;;57.67;1.80;;;;;;;;;;5053781;28;20501;-84
2022/05/25 11:59:50;;;;;;;57.67;1.87;;;;;;;;;;5052799;28;20511;-86
2022/05/25 12:02:27;;;;;;;57.80;1.90;;;;;;;;;;5052494;28;20456;-83
2022/05/25 12:05:04;;;;;;;62.53;2.20;;;;;;;;;;5052503;28;20436;-86
2022/05/25 12:07:39;;;;;;;57.77;1.90;;;;;;;;;;5052897;28;20476;-86
2022/05/25 12:10:22;;;;;;;57.67;2.00;;;;;;;;;;5053194;28;20483;-86
2022/05/25 12:12:53;;;;;;;57.37;1.83;;;;;;;;;;5052299;28;20425;-85
2022/05/25 12:15:23;;;;;;;57.37;1.80;;;;;;;;;;5053052;28;20955;-84
2022/05/25 12:17:54;;;;;;;57.33;1.90;;;;;;;;;;5052110;28;20433;-85
2022/05/25 12:20:26;;;;;;;57.37;2.00;;;;;;;;;;5051866;28;20464;-84
2022/05/25 12:22:55;;;;;;;57.07;2.10;;;;;;;;;;5052371;28;20432;-87
2022/05/25 12:25:22;;;;;;;57.07;2.00;;;;;;;;;;5051880;28;20495;-86
2022/05/25 12:27:52;;;;;;;57.17;1.70;;;;;;;;;;5051833;28;20441;-87
2022/05/25 12:30:24;;;;;;;57.27;1.80;;;;;;;;;;5053030;28;20452;-90
2022/05/25 12:32:53;;;;;;;57.53;1.87;;;;;;;;;;5052750;28;20421;-91
2022/05/25 12:35:22;;;;;;;57.17;1.93;;;;;;;;;;5052491;28;20464;-90
2022/05/25 12:37:51;;;;;;;57.37;1.80;;;;;;;;;;5052405;28;20468;-90
2022/05/25 12:40:33;;;;;;;57.67;1.90;;;;;;;;;;5052325;28;20550;-91
2022/05/25 12:43:01;;;;;;;57.73;1.80;;;;;;;;;;5052746;28;20476;-90
2022/05/25 12:48:49;;;;;;;57.97;2.10;;;;;;;;;;5053854;28;20403;-91
2022/05/25 12:51:30;;;;;;;58.23;2.10;;;;;;;;;;5056773;28;20474;-92
2022/05/25 12:53:58;;;;;;;58.20;2.07;;;;;;;;;;5057037;28;20466;-91
2022/05/25 12:56:34;;;;;;;57.87;1.90;;;;;;;;;;5055671;28;20460;-88
2022/05/25 12:59:06;;;;;;;58.90;2.30;;;;;;;;;;5055225;28;20494;-87
2022/05/25 13:01:36;;;;;;;58.10;1.93;;;;;;;;;;5055872;28;20495;-89
2022/05/25 13:04:16;;;;;;;58.07;2.10;;;;;;;;;;5055781;28;20435;-90
2022/05/25 13:07:01;;;;;;;58.40;2.20;;;;;;;;;;5056052;28;20464;-89
2022/05/25 13:09:40;;;;;;;58.43;2.30;;;;;;;;;;5055893;28;20460;-89
2022/05/25 13:12:26;;;;;;;57.77;1.90;;;;;;;;;;5055853;28;20954;-85
2022/05/25 13:14:56;;;;;;;57.93;1.80;;;;;;;;;;5055800;28;20466;-91
2022/05/25 13:17:53;;;;;;;58.47;2.07;;;;;;;;;;5055454;28;20825;-88
2022/05/25 13:20:48;;;;;;;57.73;2.10;;;;;;;;;;5032419;28;20487;-88
2022/05/25 13:23:30;;;;;;;57.70;1.80;;;;;;;;;;5056612;28;20455;-89
2022/05/25 13:26:01;;;;;;;57.73;2.10;;;;;;;;;;5056483;28;20488;-88
2022/05/25 13:28:34;;;;;;;57.67;1.90;;;;;;;;;;5056449;28;20437;-90
2022/05/25 13:31:06;;;;;;;57.57;2.00;;;;;;;;;;5055414;28;20459;-86
2022/05/25 13:33:38;;;;;;;57.87;2.00;;;;;;;;;;5055196;28;21041;-88
2022/05/25 13:36:09;;;;;;;57.70;1.90;;;;;;;;;;5064530;28;20451;-90
2022/05/25 13:38:38;;;;;;;57.90;2.00;;;;;;;;;;5077441;28;20846;-90
2022/05/25 13:41:09;;;;;;;57.80;2.20;;;;;;;;;;5079495;28;20475;-89
2022/05/25 13:43:45;;;;;;;57.73;2.10;;;;;;;;;;5075694;28;20462;-90
2022/05/25 13:46:30;;;;;;;57.77;2.00;;;;;;;;;;5075636;28;20461;-89
2022/05/25 13:48:58;;;;;;;58.07;2.40;;;;;;;;;;5074919;28;20479;-90
2022/05/25 13:51:25;;;;;;;59.43;2.20;;;;;;;;;;5067853;28;20467;-89
2022/05/25 13:53:53;;;;;;;57.80;2.00;;;;;;;;;;5074865;28;20455;-91
2022/05/25 13:56:24;;;;;;;58.73;2.10;;;;;;;;;;5074628;28;20834;-88
2022/05/25 13:58:55;;;;;;;57.67;2.00;;;;;;;;;;5074532;28;20479;-86
2022/05/25 14:01:24;;;;;;;57.57;1.90;;;;;;;;;;5074585;28;20443;-88
2022/05/25 14:03:53;;;;;;;75.07;2.70;;;;;;;;;;5075712;28;20446;-89
2022/05/25 14:06:20;;;;;;;57.80;1.80;;;;;;;;;;5086536;28;20457;-88
2022/05/25 14:11:40;;;;;;;57.87;2.00;;;;;;;;;;5074793;28;20423;-90
2022/05/25 14:14:18;;;;;;;57.90;2.00;;;;;;;;;;5074857;28;20518;-90
2022/05/25 14:16:51;;;;;;;57.67;1.90;;;;;;;;;;5073904;28;20505;-92
2022/05/25 14:19:22;;;;;;;57.70;1.90;;;;;;;;;;5074254;28;20491;-89
2022/05/25 14:21:51;;;;;;;57.90;2.30;;;;;;;;;;5074566;28;20441;-86
2022/05/25 14:24:23;;;;;;;57.63;1.93;;;;;;;;;;5074526;28;20443;-89
2022/05/25 14:26:53;;;;;;;57.60;2.07;;;;;;;;;;5074479;28;20448;-87
2022/05/25 14:29:22;;;;;;;57.90;2.10;;;;;;;;;;5074100;28;20554;-91
2022/05/25 14:31:51;;;;;;;57.57;2.00;;;;;;;;;;5074807;28;20456;-88
2022/05/25 14:34:20;;;;;;;57.70;1.90;;;;;;;;;;5074479;28;20467;-88
2022/05/25 14:36:49;;;;;;;57.43;1.80;;;;;;;;;;5073469;28;20455;-86
2022/05/25 14:39:17;;;;;;;57.80;2.00;;;;;;;;;;5073888;28;20537;-87
2022/05/25 14:41:46;;;;;;;57.70;1.90;;;;;;;;;;5074251;28;20855;-91
2022/05/25 14:44:33;;;;;;;61.03;2.20;;;;;;;;;;5074061;28;20467;-87
2022/05/25 14:47:01;;;;;;;57.50;1.70;;;;;;;;;;5074260;28;20435;-87
2022/05/25 14:49:29;;;;;;;57.47;1.80;;;;;;;;;;5073953;28;20459;-89
2022/05/25 14:51:57;;;;;;;57.57;1.90;;;;;;;;;;5073976;28;20459;-86
2022/05/25 14:54:26;;;;;;;57.47;1.70;;;;;;;;;;5065605;28;20888;-90
2022/05/25 14:56:54;;;;;;;57.33;1.80;;;;;;;;;;5073499;28;20478;-93
2022/05/25 14:59:28;;;;;;;57.40;1.80;;;;;;;;;;5074228;28;20522;-90
2022/05/25 15:02:01;;;;;;;57.63;2.00;;;;;;;;;;5073524;28;20456;-93
2022/05/25 15:04:32;;;;;;;57.43;1.90;;;;;;;;;;5073748;28;20455;-87
2022/05/25 15:07:01;;;;;;;58.63;2.27;;;;;;;;;;5073386;28;20443;-87
2022/05/25 15:09:33;;;;;;;58.70;2.40;;;;;;;;;;5073146;28;20550;-86
2022/05/25 15:12:19;;;;;;;57.27;1.60;;;;;;;;;;5072357;28;20523;-86
2022/05/25 15:20:34;;;;;;;57.37;1.90;;;;;;;;;;5073087;28;20482;-86
2022/05/25 15:23:03;;;;;;;57.53;1.80;;;;;;;;;;5073228;28;20936;-89
2022/05/25 15:25:32;;;;;;;57.57;1.80;;;;;;;;;;5073285;28;20534;-87
2022/05/25 15:28:01;;;;;;;57.37;1.70;;;;;;;;;;5073070;28;20535;-87
2022/05/25 15:30:41;;;;;;;57.30;1.70;;;;;;;;;;5087070;28;20455;-89
2022/05/25 15:33:10;;;;;;;59.50;2.00;;;;;;;;;;5092017;28;20440;-86
2022/05/25 15:35:38;;;;;;;57.70;1.90;;;;;;;;;;5090383;28;20432;-85
2022/05/25 15:38:06;;;;;;;58.30;2.00;;;;;;;;;;5088898;28;20474;-88
2022/05/25 15:40:36;;;;;;;57.60;1.90;;;;;;;;;;5081907;28;21046;-86
2022/05/25 15:43:04;;;;;;;58.30;1.90;;;;;;;;;;5081637;28;20447;-88
2022/05/25 15:45:32;;;;;;;57.87;2.00;;;;;;;;;;5075290;28;20522;-87
2022/05/25 15:48:01;;;;;;;57.80;1.93;;;;;;;;;;5072868;28;20963;-86
2022/05/25 15:50:30;;;;;;;57.83;1.90;;;;;;;;;;5073319;28;20562;-89
2022/05/25 15:52:58;;;;;;;58.50;2.20;;;;;;;;;;5072884;28;20527;-91
2022/05/25 15:55:25;;;;;;;57.67;1.60;;;;;;;;;;5072518;28;20459;-90
2022/05/25 15:57:53;;;;;;;57.73;1.70;;;;;;;;;;5072723;28;20455;-91
2022/05/25 16:00:20;;;;;;;58.20;2.13;;;;;;;;;;5072550;28;20492;-88
2022/05/25 16:02:48;;;;;;;57.97;2.00;;;;;;;;;;5072480;28;20507;-84
2022/05/25 16:05:18;;;;;;;58.30;2.20;;;;;;;;;;5072183;28;20450;-87
2022/05/25 16:10:33;;;;;;;57.70;1.97;;;;;;;;;;5072517;28;21071;-88
2022/05/25 16:13:01;;;;;;;58.07;2.03;;;;;;;;;;5072538;28;20556;-89
2022/05/25 16:15:29;;;;;;;57.90;1.80;;;;;;;;;;5072013;28;20439;-86
2022/05/25 16:17:56;;;;;;;57.93;1.83;;;;;;;;;;5071724;28;20477;-89
2022/05/25 16:20:25;;;;;;;57.90;1.90;;;;;;;;;;5072389;28;20583;-86
2022/05/25 16:22:53;;;;;;;57.87;1.90;;;;;;;;;;5071823;28;20445;-86
2022/05/25 16:25:22;;;;;;;58.00;1.90;;;;;;;;;;5072279;28;20470;-88
2022/05/25 16:27:50;;;;;;;58.07;2.10;;;;;;;;;;5071982;28;20523;-89
2022/05/25 16:30:18;;;;;;;57.83;1.93;;;;;;;;;;5072038;28;20993;-87
2022/05/25 16:32:45;;;;;;;58.17;2.00;;;;;;;;;;5072015;28;20459;-86
2022/05/25 16:35:14;;;;;;;57.73;1.80;;;;;;;;;;5072408;28;20469;-85
2022/05/25 16:37:42;;;;;;;58.60;2.57;;;;;;;;;;5071484;28;20460;-87
2022/05/25 16:40:12;;;;;;;57.90;1.80;;;;;;;;;;5071805;28;20510;-86
2022/05/25 16:42:39;;;;;;;58.17;2.00;;;;;;;;;;5071840;28;20436;-87
2022/05/25 16:45:07;;;;;;;59.10;2.70;;;;;;;;;;5072254;28;20886;-85
2022/05/25 16:47:35;;;;;;;58.60;2.37;;;;;;;;;;5072209;28;20475;-86
2022/05/25 16:50:02;;;;;;;58.97;2.43;;;;;;;;;;5071750;28;21072;-86
2022/05/25 16:52:30;;;;;;;57.73;2.20;;;;;;;;;;5071881;28;20439;-89
2022/05/25 16:54:58;;;;;;;57.97;2.13;;;;;;;;;;5071763;28;20474;-87
2022/05/25 16:57:27;;;;;;;59.00;2.27;;;;;;;;;;5071235;28;20454;-85
2022/05/25 16:59:55;;;;;;;58.57;2.70;;;;;;;;;;5071738;28;20498;-83
2022/05/25 17:02:22;;;;;;;58.33;2.17;;;;;;;;;;5063383;28;20458;-85
2022/05/25 17:04:49;;;;;;;58.20;2.07;;;;;;;;;;5071758;28;20542;-85
2022/05/25 17:07:17;;;;;;;58.17;2.00;;;;;;;;;;5071483;28;20446;-85
2022/05/25 17:09:44;;;;;;;58.07;2.10;;;;;;;;;;5071627;28;20959;-84
2022/05/25 17:12:11;;;;;;;58.00;2.10;;;;;;;;;;5071519;28;20463;-85
2022/05/25 17:14:40;;;;;;;58.33;2.00;;;;;;;;;;5072152;28;20875;-84
2022/05/25 17:17:07;;;;;;;58.17;2.40;;;;;;;;;;5072320;28;20966;-82
2022/05/25 17:22:20;;;;;;;58.13;2.20;;;;;;;;;;5074359;28;20930;-83
2022/05/25 17:24:47;;;;;;;58.13;2.10;;;;;;;;;;5072974;28;20447;-84
2022/05/25 17:27:15;;;;;;;57.97;2.10;;;;;;;;;;5072258;28;20447;-83
2022/05/25 17:29:43;;;;;;;57.97;2.33;;;;;;;;;;5072248;28;20467;-85
2022/05/25 17:32:12;;;;;;;58.57;2.30;;;;;;;;;;5072461;28;20439;-86
2022/05/25 17:34:39;;;;;;;58.47;2.50;;;;;;;;;;5072407;28;20490;-84
2022/05/25 17:42:36;;;;;;;58.43;2.50;;;;;;;;;;5075214;28;20411;-82
2022/05/25 17:45:05;;;;;;;58.50;2.60;;;;;;;;;;5074694;28;20444;-83
2022/05/25 17:47:33;;;;;;;58.17;2.60;;;;;;;;;;5075074;28;20478;-82
2022/05/25 17:50:00;;;;;;;76.67;3.67;;;;;;;;;;5075546;28;20521;-83
2022/05/25 17:52:28;;;;;;;58.40;2.77;;;;;;;;;;5075725;28;20454;-82
2022/05/25 17:54:55;;;;;;;58.27;2.50;;;;;;;;;;5075028;28;20431;-82
2022/05/25 17:57:22;;;;;;;59.47;3.57;;;;;;;;;;5074709;28;20497;-83
2022/05/25 17:59:50;;;;;;;59.83;2.50;;;;;;;;;;5074565;28;20460;-84